createdAt,value
2017-07-17T00:01:56.389Z,100928.72
2017-07-17T00:04:23.854Z,100927.02
2017-07-17T00:06:51.394Z,100932.83
2017-07-17T00:09:18.869Z,100924.86
2017-07-17T00:11:46.406Z,100924.69
2017-07-17T00:14:13.970Z,100920.53
2017-07-17T00:16:41.787Z,100921.89
2017-07-17T00:19:09.294Z,100918.05
2017-07-17T00:21:36.845Z,100919.34
2017-07-17T00:24:04.329Z,100915.33
2017-07-17T00:26:31.797Z,100924.31
2017-07-17T00:28:59.322Z,100916.95
2017-07-17T00:31:26.785Z,100914.92
2017-07-17T00:33:54.283Z,100911.66
2017-07-17T00:36:21.793Z,100910.91
2017-07-17T00:38:49.285Z,100906.52
2017-07-17T00:41:16.834Z,100903.03
2017-07-17T00:43:44.370Z,100899.02
2017-07-17T00:46:11.871Z,100907.16
2017-07-17T00:48:39.358Z,100914.06
2017-07-17T00:51:06.817Z,100908.64
2017-07-17T00:53:34.336Z,100903.20
2017-07-17T00:56:01.857Z,100904.45
2017-07-17T00:58:29.415Z,100904.13
2017-07-17T01:00:56.989Z,100902.39
2017-07-17T01:03:24.542Z,100898.52
2017-07-17T01:05:52.030Z,100890.66
2017-07-17T01:08:19.499Z,100894.87
2017-07-17T01:10:46.983Z,100891.88
2017-07-17T01:13:14.450Z,100894.10
2017-07-17T01:15:42.283Z,100895.46
2017-07-17T01:18:09.745Z,100899.84
2017-07-17T01:20:37.229Z,100903.05
2017-07-17T01:23:04.693Z,100896.05
2017-07-17T01:25:32.286Z,100897.80
2017-07-17T01:27:59.981Z,100890.30
2017-07-17T01:30:27.514Z,100893.54
2017-07-17T01:32:55.010Z,100891.17
2017-07-17T01:35:22.477Z,100894.20
2017-07-17T01:37:50.053Z,100893.76
2017-07-17T01:40:18.049Z,100893.91
2017-07-17T01:42:45.562Z,100889.10
2017-07-17T01:45:13.031Z,100887.86
2017-07-17T01:47:40.514Z,100888.05
2017-07-17T01:50:07.998Z,100888.18
2017-07-17T01:52:35.634Z,100886.02
2017-07-17T01:55:03.158Z,100888.83
2017-07-17T01:57:30.761Z,100884.45
2017-07-17T01:59:58.233Z,100882.64
2017-07-17T02:02:25.842Z,100879.98
2017-07-17T02:04:54.070Z,100883.34
2017-07-17T02:07:21.569Z,100881.77
2017-07-17T02:09:49.058Z,100878.90
2017-07-17T02:12:16.585Z,100884.91
2017-07-17T02:14:44.070Z,100876.81
2017-07-17T02:17:11.986Z,100871.98
2017-07-17T02:19:39.469Z,100868.55
2017-07-17T02:22:07.025Z,100870.87
2017-07-17T02:24:34.545Z,100875.16
2017-07-17T02:27:02.014Z,100876.70
2017-07-17T02:29:29.850Z,100873.02
2017-07-17T02:31:57.402Z,100871.50
2017-07-17T02:34:24.901Z,100878.69
2017-07-17T02:36:52.382Z,100876.95
2017-07-17T02:39:19.897Z,100878.41
2017-07-17T02:41:47.402Z,100878.60
2017-07-17T02:44:14.909Z,100879.73
2017-07-17T02:46:42.382Z,100887.05
2017-07-17T02:49:09.854Z,100880.93
2017-07-17T02:51:37.345Z,100884.13
2017-07-17T02:54:05.170Z,100882.61
2017-07-17T02:56:32.698Z,100883.44
2017-07-17T02:59:00.200Z,100883.48
2017-07-17T03:01:27.686Z,100885.86
2017-07-17T03:03:55.173Z,100876.99
2017-07-17T03:06:22.694Z,100879.70
2017-07-17T03:08:50.163Z,100881.33
2017-07-17T03:11:17.724Z,100881.27
2017-07-17T03:13:45.264Z,100884.14
2017-07-17T03:16:12.765Z,100883.00
2017-07-17T03:18:40.238Z,100887.13
2017-07-17T03:21:07.721Z,100882.90
2017-07-17T03:23:57.806Z,100880.95
2017-07-17T03:26:25.366Z,100886.65
2017-07-17T03:28:52.851Z,100885.75
2017-07-17T03:31:20.381Z,100887.97
2017-07-17T03:33:47.842Z,100885.75
2017-07-17T03:36:15.331Z,100887.08
2017-07-17T03:38:42.855Z,100883.55
2017-07-17T03:41:10.410Z,100880.84
2017-07-17T03:43:37.970Z,100887.56
2017-07-17T03:46:05.536Z,100882.09
2017-07-17T03:48:33.081Z,100881.02
2017-07-17T03:51:00.545Z,100883.23
2017-07-17T03:53:28.343Z,100885.02
2017-07-17T03:55:55.836Z,100879.28
2017-07-17T03:58:23.426Z,100877.01
2017-07-17T04:00:50.981Z,100875.98
2017-07-17T04:03:18.542Z,100879.58
2017-07-17T04:05:46.009Z,100880.14
2017-07-17T04:08:13.514Z,100881.13
2017-07-17T04:10:41.013Z,100877.38
2017-07-17T04:13:08.573Z,100881.17
2017-07-17T04:15:36.173Z,100880.41
2017-07-17T04:18:04.032Z,100880.78
2017-07-17T04:20:31.567Z,100889.90
2017-07-17T04:22:59.109Z,100894.81
2017-07-17T04:25:26.597Z,100892.98
2017-07-17T04:27:54.073Z,100890.48
2017-07-17T04:30:22.110Z,100889.44
2017-07-17T04:32:49.658Z,100894.20
2017-07-17T04:35:17.149Z,100890.73
2017-07-17T04:37:44.635Z,100892.47
2017-07-17T04:40:12.233Z,100900.49
2017-07-17T04:42:40.804Z,100893.59
2017-07-17T04:45:08.370Z,100897.84
2017-07-17T04:47:35.939Z,100900.44
2017-07-17T04:50:03.532Z,100897.81
2017-07-17T04:52:30.999Z,100897.44
2017-07-17T04:54:59.105Z,100898.30
2017-07-17T04:57:26.605Z,100896.81
2017-07-17T04:59:54.203Z,100895.78
2017-07-17T05:02:21.736Z,100904.17
2017-07-17T05:04:49.282Z,100907.67
2017-07-17T05:07:16.785Z,100907.41
2017-07-17T05:09:44.303Z,100906.03
2017-07-17T05:12:11.795Z,100901.16
2017-07-17T05:14:39.286Z,100896.91
2017-07-17T05:17:06.837Z,100902.00
2017-07-17T05:19:34.303Z,100908.52
2017-07-17T05:22:01.873Z,100899.64
2017-07-17T05:24:29.351Z,100907.78
2017-07-17T05:26:56.846Z,100914.13
2017-07-17T05:29:24.326Z,100912.44
2017-07-17T05:31:51.797Z,100911.60
2017-07-17T05:34:19.289Z,100908.95
2017-07-17T05:36:46.806Z,100904.39
2017-07-17T05:39:14.295Z,100909.28
2017-07-17T05:41:41.782Z,100913.81
2017-07-17T05:44:09.421Z,100910.34
2017-07-17T05:46:36.894Z,100915.86
2017-07-17T05:49:04.389Z,100919.92
2017-07-17T05:51:31.853Z,100912.95
2017-07-17T05:53:59.407Z,100921.56
2017-07-17T05:56:26.966Z,100924.31
2017-07-17T05:58:54.565Z,100926.59
2017-07-17T06:01:22.050Z,100930.09
2017-07-17T06:03:49.513Z,100930.28
2017-07-17T06:06:17.160Z,100935.15
2017-07-17T06:08:44.665Z,100936.95
2017-07-17T06:11:12.153Z,100930.67
2017-07-17T06:13:39.617Z,100929.69
2017-07-17T06:16:07.105Z,100929.23
2017-07-17T06:18:34.641Z,100940.50
2017-07-17T06:21:02.138Z,100933.41
2017-07-17T06:23:29.705Z,100931.80
2017-07-17T06:25:57.197Z,100938.15
2017-07-17T06:28:24.658Z,100934.95
2017-07-17T06:30:52.146Z,100934.38
2017-07-17T06:33:19.628Z,100926.77
2017-07-17T06:35:47.114Z,100928.20
2017-07-17T06:38:14.590Z,100933.41
2017-07-17T06:40:42.102Z,100925.89
2017-07-17T06:43:09.562Z,100924.04
2017-07-17T06:45:37.118Z,100920.86
2017-07-17T06:48:04.682Z,100923.70
2017-07-17T06:50:32.231Z,100920.98
2017-07-17T06:52:59.731Z,100917.28
2017-07-17T06:55:27.211Z,100920.17
2017-07-17T06:57:54.715Z,100915.34
2017-07-17T07:00:22.555Z,100922.20
2017-07-17T07:02:50.049Z,100925.98
2017-07-17T07:05:17.519Z,100922.28
2017-07-17T07:07:45.071Z,100930.89
2017-07-17T07:10:12.610Z,100931.12
2017-07-17T07:12:40.162Z,100924.01
2017-07-17T07:15:07.726Z,100924.50
2017-07-17T07:17:35.279Z,100924.41
2017-07-17T07:20:03.228Z,100920.94
2017-07-17T07:22:30.754Z,100922.24
2017-07-17T07:24:58.230Z,100925.47
2017-07-17T07:27:25.860Z,100921.34
2017-07-17T07:29:53.325Z,100912.56
2017-07-17T07:32:20.795Z,100914.72
2017-07-17T07:34:48.280Z,100908.84
2017-07-17T07:37:15.751Z,100911.28
2017-07-17T07:39:43.315Z,100918.33
2017-07-17T07:42:10.789Z,100912.84
2017-07-17T07:44:38.277Z,100911.75
2017-07-17T07:47:05.784Z,100917.59
2017-07-17T07:49:33.341Z,100907.03
2017-07-17T07:52:00.885Z,100908.65
2017-07-17T07:54:28.369Z,100908.75
2017-07-17T07:56:55.838Z,100907.08
2017-07-17T07:59:23.366Z,100912.09
2017-07-17T08:01:50.838Z,100907.77
2017-07-17T08:04:18.382Z,100908.90
2017-07-17T08:06:45.970Z,100903.25
2017-07-17T08:09:13.450Z,100905.99
2017-07-17T08:11:40.957Z,100903.17
2017-07-17T08:14:08.506Z,100909.06
2017-07-17T08:16:36.018Z,100904.03
2017-07-17T08:19:03.549Z,100910.06
2017-07-17T08:21:31.136Z,100900.27
2017-07-17T08:23:58.645Z,100899.14
2017-07-17T08:26:26.143Z,100899.33
2017-07-17T08:28:53.622Z,100902.29
2017-07-17T08:31:21.226Z,100897.64
2017-07-17T08:33:48.845Z,100896.73
2017-07-17T08:36:16.341Z,100892.94
2017-07-17T08:38:43.801Z,100894.37
2017-07-17T08:41:11.298Z,100894.42
2017-07-17T08:43:38.833Z,100898.89
2017-07-17T08:46:06.885Z,100892.09
2017-07-17T08:48:34.438Z,100889.56
2017-07-17T08:51:02.214Z,100894.22
2017-07-17T08:54:48.203Z,100891.69
2017-07-17T08:57:15.758Z,100888.55
2017-07-17T08:59:43.250Z,100889.41
2017-07-17T09:02:10.931Z,100886.67
2017-07-17T09:04:38.455Z,100887.94
2017-07-17T09:07:05.946Z,100887.13
2017-07-17T09:09:33.454Z,100884.64
2017-07-17T09:12:01.009Z,100880.25
2017-07-17T09:14:28.661Z,100876.92
2017-07-17T09:16:56.235Z,100875.69
2017-07-17T09:19:23.791Z,100880.61
2017-07-17T09:21:51.345Z,100878.22
2017-07-17T09:24:18.829Z,100874.22
2017-07-17T09:26:46.290Z,100879.08
2017-07-17T09:29:13.773Z,100878.55
2017-07-17T09:31:41.237Z,100872.47
2017-07-17T09:34:08.773Z,100870.19
2017-07-17T09:36:36.236Z,100868.44
2017-07-17T09:39:03.900Z,100864.42
2017-07-17T09:41:31.361Z,100864.98
2017-07-17T09:46:57.054Z,100863.27
2017-07-17T09:49:24.596Z,100861.56
2017-07-17T09:51:52.158Z,100860.36
2017-07-17T09:54:19.641Z,100861.51
2017-07-17T09:56:47.124Z,100864.50
2017-07-17T09:59:14.627Z,100860.77
2017-07-17T10:01:42.117Z,100856.77
2017-07-17T10:04:09.604Z,100858.02
2017-07-17T10:06:37.103Z,100862.64
2017-07-17T10:09:04.625Z,100865.14
2017-07-17T10:11:32.135Z,100851.99
2017-07-17T10:13:59.598Z,100855.52
2017-07-17T10:16:27.082Z,100850.13
2017-07-17T10:18:54.550Z,100855.15
2017-07-17T10:59:56.975Z,100839.31
2017-07-17T11:02:24.465Z,100841.92
2017-07-17T11:04:51.950Z,100842.53
2017-07-17T11:07:19.481Z,100842.81
2017-07-17T11:09:46.967Z,100837.66
2017-07-17T11:12:14.454Z,100839.70
2017-07-17T11:14:41.925Z,100832.08
2017-07-17T11:17:09.609Z,100839.92
2017-07-17T11:19:37.165Z,100833.41
2017-07-17T11:22:04.769Z,100836.20
2017-07-17T11:24:32.328Z,100836.58
2017-07-17T11:26:59.889Z,100831.22
2017-07-17T11:29:27.405Z,100832.15
2017-07-17T11:31:54.930Z,100828.44
2017-07-17T11:34:22.421Z,100830.28
2017-07-17T11:36:49.881Z,100823.73
2017-07-17T11:39:17.366Z,100824.36
2017-07-17T11:41:44.833Z,100823.69
2017-07-17T11:44:12.317Z,100819.33
2017-07-17T11:56:51.038Z,100815.95
2017-07-17T11:59:18.540Z,100816.99
2017-07-17T12:01:46.001Z,100818.41
2017-07-17T12:04:13.493Z,100814.66
2017-07-17T12:06:40.958Z,100815.99
2017-07-17T12:09:08.441Z,100822.22
2017-07-17T12:11:35.897Z,100820.03
2017-07-17T12:14:03.457Z,100819.38
2017-07-17T12:16:30.915Z,100822.09
2017-07-17T12:18:58.441Z,100818.91
2017-07-17T12:21:25.997Z,100820.27
2017-07-17T12:23:53.558Z,100818.29
2017-07-17T12:26:21.054Z,100812.77
2017-07-17T12:28:48.514Z,100808.72
2017-07-17T12:31:16.038Z,100803.91
2017-07-17T12:33:43.497Z,100805.97
2017-07-17T12:36:10.994Z,100806.37
2017-07-17T12:38:38.454Z,100805.88
2017-07-17T12:41:05.971Z,100801.86
2017-07-17T12:43:33.516Z,100805.42
2017-07-17T12:46:01.025Z,100793.35
2017-07-17T12:48:28.485Z,100794.81
2017-07-17T12:50:56.033Z,100791.84
2017-07-17T12:53:23.492Z,100786.19
2017-07-17T12:55:51.006Z,100792.19
2017-07-17T12:58:18.562Z,100796.81
2017-07-17T13:00:46.066Z,100790.50
2017-07-17T13:03:13.553Z,100790.82
2017-07-17T13:05:41.054Z,100797.03
2017-07-17T13:08:08.598Z,100794.98
2017-07-17T13:10:36.165Z,100788.67
2017-07-17T13:13:03.654Z,100780.02
2017-07-17T13:15:31.777Z,100784.08
2017-07-17T13:17:59.386Z,100787.67
2017-07-17T13:20:26.845Z,100788.58
2017-07-17T13:22:54.408Z,100784.74
2017-07-17T13:25:21.914Z,100784.44
2017-07-17T13:27:49.396Z,100783.98
2017-07-17T13:30:16.930Z,100782.53
2017-07-17T13:32:44.493Z,100780.15
2017-07-17T13:35:12.070Z,100783.49
2017-07-17T13:37:39.652Z,100786.44
2017-07-17T13:40:07.287Z,100786.66
2017-07-17T13:42:34.841Z,100785.66
2017-07-17T13:45:02.377Z,100777.98
2017-07-17T13:47:29.940Z,100786.61
2017-07-17T13:49:57.445Z,100782.88
2017-07-17T13:52:24.957Z,100785.03
2017-07-17T13:54:52.412Z,100777.51
2017-07-17T13:57:19.977Z,100776.09
2017-07-17T13:59:47.537Z,100770.99
2017-07-17T14:02:15.090Z,100768.09
2017-07-17T14:04:42.644Z,100768.94
2017-07-17T14:07:13.150Z,100772.54
2017-07-17T14:09:40.763Z,100769.45
2017-07-17T14:12:08.298Z,100773.02
2017-07-17T14:14:35.852Z,100768.55
2017-07-17T14:17:03.413Z,100769.60
2017-07-17T14:19:30.894Z,100768.74
2017-07-17T14:21:58.545Z,100756.84
2017-07-17T14:24:26.089Z,100762.02
2017-07-17T14:26:53.645Z,100754.22
2017-07-17T14:29:21.137Z,100760.78
2017-07-17T14:31:48.597Z,100755.30
2017-07-17T14:34:16.121Z,100756.22
2017-07-17T14:36:43.682Z,100755.91
2017-07-17T14:39:11.237Z,100750.67
2017-07-17T14:41:38.792Z,100747.83
2017-07-17T14:44:06.270Z,100753.58
2017-07-17T14:46:33.745Z,100749.89
2017-07-17T14:49:01.221Z,100754.88
2017-07-17T14:51:28.744Z,100748.87
2017-07-17T14:53:56.255Z,100744.54
2017-07-17T14:56:23.742Z,100748.30
2017-07-17T14:58:51.297Z,100742.23
2017-07-17T15:01:18.869Z,100748.92
2017-07-17T15:03:46.325Z,100746.61
2017-07-17T15:06:13.892Z,100745.48
2017-07-17T15:08:41.353Z,100744.56
2017-07-17T15:11:08.832Z,100742.89
2017-07-17T15:13:36.409Z,100749.89
2017-07-17T15:16:03.886Z,100744.89
2017-07-17T15:18:31.362Z,100749.94
2017-07-17T15:20:58.912Z,100753.51
2017-07-17T15:23:27.344Z,100745.53
2017-07-17T15:25:54.893Z,100753.70
2017-07-17T15:28:22.366Z,100745.12
2017-07-17T15:30:49.869Z,100737.07
2017-07-17T15:33:17.432Z,100738.00
2017-07-17T15:35:44.993Z,100739.72
2017-07-17T15:38:12.546Z,100735.01
2017-07-17T15:40:40.118Z,100738.07
2017-07-17T15:43:07.662Z,100733.45
2017-07-17T15:45:35.163Z,100729.27
2017-07-17T15:48:02.686Z,100723.99
2017-07-17T15:50:30.169Z,100728.28
2017-07-17T15:52:57.702Z,100724.14
2017-07-17T15:55:25.249Z,100723.48
2017-07-17T15:57:52.709Z,100723.04
2017-07-17T16:00:20.270Z,100720.39
2017-07-17T16:02:47.758Z,100720.60
2017-07-17T16:05:15.326Z,100717.80
2017-07-17T16:07:42.837Z,100713.27
2017-07-17T16:10:10.412Z,100711.67
2017-07-17T16:12:37.962Z,100704.01
2017-07-17T16:15:05.600Z,100706.58
2017-07-17T16:17:33.094Z,100705.04
2017-07-17T16:20:00.565Z,100708.81
2017-07-17T16:22:28.046Z,100702.93
2017-07-17T16:24:55.556Z,100702.97
2017-07-17T16:27:23.028Z,100700.70
2017-07-17T16:29:50.608Z,100703.23
2017-07-17T16:32:18.115Z,100704.38
2017-07-17T16:34:45.573Z,100704.38
2017-07-17T16:37:13.079Z,100702.98
2017-07-17T16:39:40.592Z,100706.86
2017-07-17T16:42:08.078Z,100699.84
2017-07-17T16:44:35.551Z,100703.87
2017-07-17T16:47:03.037Z,100706.34
2017-07-17T16:49:30.529Z,100703.36
2017-07-17T16:51:58.008Z,100696.45
2017-07-17T16:54:25.494Z,100703.64
2017-07-17T16:56:52.989Z,100701.63
2017-07-17T16:59:20.458Z,100710.63
2017-07-17T17:01:48.001Z,100706.12
2017-07-17T17:04:15.510Z,100703.61
2017-07-17T17:06:42.982Z,100709.72
2017-07-17T17:09:10.487Z,100706.91
2017-07-17T17:11:37.945Z,100708.04
2017-07-17T17:14:05.494Z,100710.69
2017-07-17T17:16:32.958Z,100706.95
2017-07-17T17:19:00.502Z,100711.87
2017-07-17T17:21:27.972Z,100710.91
2017-07-17T17:23:55.461Z,100705.36
2017-07-17T17:26:22.926Z,100709.34
2017-07-17T17:28:50.405Z,100711.16
2017-07-17T17:31:17.939Z,100710.44
2017-07-17T17:33:45.441Z,100712.64
2017-07-17T17:36:12.919Z,100705.50
2017-07-17T17:38:40.528Z,100711.71
2017-07-17T17:41:07.986Z,100713.84
2017-07-17T17:43:35.460Z,100704.69
2017-07-17T17:46:02.942Z,100717.45
2017-07-17T17:48:30.465Z,100709.83
2017-07-17T17:50:57.938Z,100711.52
2017-07-17T17:53:25.420Z,100706.53
2017-07-17T17:55:52.953Z,100708.30
2017-07-17T17:58:20.449Z,100713.16
2017-07-17T18:00:47.912Z,100710.63
2017-07-17T18:03:15.833Z,100706.20
2017-07-17T18:05:43.357Z,100710.56
2017-07-17T18:08:10.837Z,100713.66
2017-07-17T18:10:38.339Z,100708.53
2017-07-17T18:13:05.885Z,100709.64
2017-07-17T18:15:33.384Z,100715.24
2017-07-17T18:18:00.850Z,100714.66
2017-07-17T18:20:28.363Z,100716.47
2017-07-17T18:22:55.910Z,100716.75
2017-07-17T18:25:23.398Z,100718.69
2017-07-17T18:27:50.925Z,100721.39
2017-07-17T18:30:18.486Z,100720.41
2017-07-17T18:32:45.949Z,100720.23
2017-07-17T18:35:13.429Z,100727.07
2017-07-17T18:37:40.961Z,100720.80
2017-07-17T18:40:08.443Z,100723.69
2017-07-17T18:42:35.905Z,100727.55
2017-07-17T18:45:03.473Z,100726.95
2017-07-17T18:47:30.989Z,100728.20
2017-07-17T18:49:58.591Z,100730.92
2017-07-17T18:52:26.258Z,100732.75
2017-07-17T18:54:53.771Z,100732.47
2017-07-17T18:57:21.333Z,100734.16
2017-07-17T18:59:48.881Z,100733.90
2017-07-17T19:02:16.441Z,100737.50
2017-07-17T19:04:43.997Z,100734.98
2017-07-17T19:07:11.493Z,100739.30
2017-07-17T19:09:39.020Z,100744.24
2017-07-17T19:12:06.502Z,100747.56
2017-07-17T19:14:33.969Z,100747.90
2017-07-17T19:17:01.489Z,100755.08
2017-07-17T19:19:29.091Z,100761.06
2017-07-17T19:21:56.649Z,100764.09
2017-07-17T19:24:24.119Z,100766.63
2017-07-17T19:26:51.596Z,100768.13
2017-07-17T19:29:19.082Z,100769.37
2017-07-17T19:31:46.562Z,100770.55
2017-07-17T19:34:14.099Z,100775.13
2017-07-17T19:36:41.649Z,100772.64
2017-07-17T19:39:09.209Z,100775.22
2017-07-17T19:41:36.689Z,100771.78
2017-07-17T19:44:04.150Z,100769.52
2017-07-17T19:46:31.686Z,100772.39
2017-07-17T19:48:59.165Z,100780.55
2017-07-17T19:51:26.702Z,100779.19
2017-07-17T19:53:54.253Z,100777.41
2017-07-17T19:56:21.726Z,100777.62
2017-07-17T19:58:49.185Z,100780.10
2017-07-17T20:01:16.729Z,100780.86
2017-07-17T20:03:44.205Z,100784.27
2017-07-17T20:06:11.670Z,100784.73
2017-07-17T20:08:39.197Z,100787.08
2017-07-17T20:11:06.658Z,100791.77
2017-07-17T20:13:34.262Z,100787.31
2017-07-17T20:16:01.785Z,100797.03
2017-07-17T20:18:29.736Z,100795.53
2017-07-17T20:20:57.300Z,100795.49
2017-07-17T20:23:24.780Z,100799.27
2017-07-17T20:25:52.318Z,100800.77
2017-07-17T20:28:19.802Z,100804.09
2017-07-17T20:30:47.285Z,100800.97
2017-07-17T20:33:14.789Z,100802.70
2017-07-17T20:35:42.300Z,100802.02
2017-07-17T20:38:09.798Z,100806.57
2017-07-17T20:40:37.361Z,100802.06
2017-07-17T20:43:04.941Z,100800.45
2017-07-17T20:45:32.401Z,100797.34
2017-07-17T20:47:59.939Z,100799.99
2017-07-17T20:50:27.486Z,100807.55
2017-07-17T20:52:55.157Z,100805.94
2017-07-17T20:55:22.622Z,100800.53
2017-07-17T20:57:50.176Z,100803.27
2017-07-17T21:00:17.726Z,100805.30
2017-07-17T21:02:45.290Z,100798.00
2017-07-17T21:05:12.849Z,100801.91
2017-07-17T21:07:40.346Z,100804.17
2017-07-17T21:10:07.833Z,100803.22
2017-07-17T21:12:35.304Z,100808.43
2017-07-17T21:15:02.809Z,100803.14
2017-07-17T21:17:30.376Z,100800.95
2017-07-17T21:19:57.861Z,100803.83
2017-07-17T21:22:25.349Z,100803.48
2017-07-17T21:24:52.909Z,100805.45
2017-07-17T21:27:20.367Z,100808.74
2017-07-17T21:29:47.849Z,100814.86
2017-07-17T21:32:15.316Z,100810.77
2017-07-17T21:34:42.834Z,100816.84
2017-07-17T21:37:10.293Z,100817.39
2017-07-17T21:39:37.846Z,100812.06
2017-07-17T21:42:05.329Z,100816.80
2017-07-17T21:44:33.585Z,100820.19
2017-07-17T21:47:01.196Z,100818.48
2017-07-17T21:49:28.697Z,100819.52
2017-07-17T21:51:56.250Z,100812.98
2017-07-17T21:54:23.730Z,100809.14
2017-07-17T21:56:51.194Z,100809.13
2017-07-17T21:59:18.684Z,100814.44
2017-07-17T22:01:46.181Z,100810.81
2017-07-17T22:04:13.686Z,100808.86
2017-07-17T22:06:41.174Z,100812.03
2017-07-17T22:09:08.657Z,100807.14
2017-07-17T22:11:36.260Z,100815.98
2017-07-17T22:14:03.731Z,100815.23
2017-07-17T22:16:31.281Z,100814.45
2017-07-17T22:18:58.740Z,100818.89
2017-07-17T22:21:26.217Z,100816.69
2017-07-17T22:23:53.729Z,100818.45
2017-07-17T22:26:21.218Z,100818.83
2017-07-17T22:28:48.722Z,100817.15
2017-07-17T22:31:16.273Z,100820.23
2017-07-17T22:33:43.732Z,100821.38
2017-07-17T22:36:11.336Z,100817.30
2017-07-17T22:38:38.802Z,100817.56
2017-07-17T22:41:06.305Z,100821.92
2017-07-17T22:43:33.861Z,100825.75
2017-07-17T22:46:01.372Z,100818.80
2017-07-17T22:48:28.836Z,100819.64
2017-07-17T22:50:56.329Z,100823.66
2017-07-17T22:53:23.825Z,100815.91
2017-07-17T22:55:51.324Z,100816.80
2017-07-17T22:58:18.949Z,100820.30
2017-07-17T23:00:46.433Z,100820.89
2017-07-17T23:03:13.922Z,100815.58
2017-07-17T23:05:41.425Z,100819.38
2017-07-17T23:08:08.915Z,100819.78
2017-07-17T23:10:36.374Z,100820.08
2017-07-17T23:13:03.865Z,100828.71
2017-07-17T23:15:31.412Z,100822.81
2017-07-17T23:17:58.997Z,100825.36
2017-07-17T23:20:26.470Z,100818.05
2017-07-17T23:22:53.957Z,100818.01
2017-07-17T23:25:21.444Z,100822.49
2017-07-17T23:27:48.999Z,100817.95
2017-07-17T23:30:16.567Z,100820.52
2017-07-17T23:32:44.046Z,100815.42
2017-07-17T23:35:11.510Z,100815.13
2017-07-17T23:37:39.049Z,100818.44
2017-07-17T23:40:06.588Z,100811.61
2017-07-17T23:42:34.083Z,100807.38
2017-07-17T23:45:01.574Z,100806.98
2017-07-17T23:47:29.185Z,100809.95
2017-07-17T23:49:56.768Z,100816.13
2017-07-17T23:52:24.250Z,100813.64
2017-07-17T23:54:51.709Z,100809.43
2017-07-17T23:57:19.188Z,100814.60
2017-07-17T23:59:46.695Z,100819.38
